DFLMT EDFM-EDRY
Flight info
| Callsign | DFLMT |
|---|---|
| Flight time | 0h -9m |
| Altitude | |
| Route | |
| Aircraft | PC12 |
Departure
| Time | 2026-05-08 19:28 |
|---|---|
| Airport | Mannheim-City Airport (EDFM) |
Arrival
| Time | 2026-05-08 19:18 |
|---|---|
| Airport | Speyer Airfield (EDRY) |
| Time | Latitude | Longitude | Altitude | Speed | Heading |
|---|---|---|---|---|---|
| 2026-05-08 19:18 | 49.47559 | 8.52138 | 314 ft | 0 kts | 184° |
| 2026-05-08 19:22 | 49.47549 | 8.52138 | 314 ft | 3 kts | 180° |
| 2026-05-08 19:22 | 49.47538 | 8.52142 | 314 ft | 2 kts | 139° |
| 2026-05-08 19:22 | 49.47535 | 8.52149 | 314 ft | 0 kts | 117° |
| 2026-05-08 19:22 | 49.47515 | 8.52171 | 314 ft | 9 kts | 184° |
| 2026-05-08 19:23 | 49.47434 | 8.52164 | 315 ft | 13 kts | 180° |
| 2026-05-08 19:23 | 49.47324 | 8.52153 | 314 ft | 17 kts | 182° |
| 2026-05-08 19:23 | 49.47231 | 8.52136 | 312 ft | 12 kts | 208° |
| 2026-05-08 19:23 | 49.47199 | 8.52003 | 313 ft | 16 kts | 271° |
| 2026-05-08 19:24 | 49.47206 | 8.51799 | 311 ft | 22 kts | 272° |
| 2026-05-08 19:24 | 49.47213 | 8.51620 | 311 ft | 18 kts | 274° |
| 2026-05-08 19:24 | 49.47217 | 8.51518 | 312 ft | 11 kts | 270° |
| 2026-05-08 19:24 | 49.47220 | 8.51363 | 312 ft | 18 kts | 274° |
| 2026-05-08 19:25 | 49.47229 | 8.51143 | 311 ft | 23 kts | 273° |
| 2026-05-08 19:25 | 49.47242 | 8.50900 | 314 ft | 15 kts | 272° |
| 2026-05-08 19:25 | 49.47246 | 8.50759 | 312 ft | 3 kts | 285° |
| 2026-05-08 19:25 | 49.47248 | 8.50751 | 312 ft | 0 kts | 298° |
| 2026-05-08 19:26 | 49.47248 | 8.50750 | 312 ft | 1 kts | 299° |
| 2026-05-08 19:26 | 49.47267 | 8.50700 | 312 ft | 9 kts | 303° |
| 2026-05-08 19:26 | 49.47295 | 8.50694 | 313 ft | 3 kts | 82° |
| 2026-05-08 19:27 | 49.47294 | 8.50799 | 314 ft | 29 kts | 92° |
| 2026-05-08 19:27 | 49.47278 | 8.51399 | 311 ft | 82 kts | 94° |
| 2026-05-08 19:27 | 49.47225 | 8.52418 | 469 ft | 104 kts | 93° |
| 2026-05-08 19:27 | 49.47155 | 8.53602 | 794 ft | 116 kts | 95° |
| 2026-05-08 19:28 | 49.47023 | 8.54758 | 1181 ft | 123 kts | 109° |
| 2026-05-08 19:28 | 49.46450 | 8.55744 | 1703 ft | 132 kts | 151° |
| 2026-05-08 19:28 | 49.45612 | 8.56287 | 2212 ft | 129 kts | 134° |
| 2026-05-08 19:28 | 49.44731 | 8.56653 | 2457 ft | 162 kts | 191° |
| 2026-05-08 19:29 | 49.43634 | 8.56328 | 2764 ft | 158 kts | 174° |
| 2026-05-08 19:29 | 49.42534 | 8.55958 | 2977 ft | 159 kts | 196° |
| 2026-05-08 19:29 | 49.41505 | 8.55255 | 3040 ft | 171 kts | 215° |
| 2026-05-08 19:29 | 49.40818 | 8.53716 | 3040 ft | 181 kts | 244° |
| 2026-05-08 19:30 | 49.40291 | 8.51918 | 3041 ft | 189 kts | 245° |
| 2026-05-08 19:30 | 49.39730 | 8.49988 | 3030 ft | 207 kts | 245° |
| 2026-05-08 19:30 | 49.39131 | 8.47923 | 3039 ft | 211 kts | 245° |
| 2026-05-08 19:30 | 49.38534 | 8.45869 | 2931 ft | 211 kts | 245° |
| 2026-05-08 19:31 | 49.37945 | 8.43791 | 2789 ft | 212 kts | 250° |
| 2026-05-08 19:31 | 49.37659 | 8.41578 | 2650 ft | 212 kts | 266° |
| 2026-05-08 19:31 | 49.37636 | 8.40732 | 2608 ft | 211 kts | 269° |
| 2026-05-08 19:31 | 49.37631 | 8.38480 | 2496 ft | 210 kts | 271° |
| 2026-05-08 19:32 | 49.37637 | 8.36271 | 2010 ft | 208 kts | 271° |
| 2026-05-08 19:32 | 49.37643 | 8.34809 | 1818 ft | 206 kts | 271° |
| 2026-05-08 19:32 | 49.37652 | 8.32608 | 1894 ft | 208 kts | 271° |
| 2026-05-08 19:32 | 49.37659 | 8.30365 | 2003 ft | 215 kts | 271° |
| 2026-05-08 19:33 | 49.37668 | 8.28022 | 2005 ft | 223 kts | 271° |
| 2026-05-08 19:33 | 49.37679 | 8.25607 | 2007 ft | 229 kts | 271° |
| 2026-05-08 19:33 | 49.37687 | 8.23148 | 2008 ft | 232 kts | 271° |
| 2026-05-08 19:33 | 49.37697 | 8.20664 | 2012 ft | 234 kts | 271° |
| 2026-05-08 19:34 | 49.37706 | 8.18160 | 2012 ft | 235 kts | 270° |
| 2026-05-08 19:34 | 49.37363 | 8.15821 | 2013 ft | 236 kts | 249° |
| 2026-05-08 19:34 | 49.36590 | 8.13611 | 2014 ft | 237 kts | 227° |
| 2026-05-08 19:34 | 49.35359 | 8.11956 | 2000 ft | 236 kts | 215° |
| 2026-05-08 19:35 | 49.34025 | 8.10423 | 2126 ft | 238 kts | 215° |
| 2026-05-08 19:35 | 49.32693 | 8.08971 | 2603 ft | 226 kts | 213° |
| 2026-05-08 19:35 | 49.31389 | 8.07567 | 2775 ft | 235 kts | 214° |
| 2026-05-08 19:35 | 49.30049 | 8.06084 | 2970 ft | 239 kts | 214° |
| 2026-05-08 19:36 | 49.28699 | 8.04588 | 3186 ft | 241 kts | 214° |
| 2026-05-08 19:36 | 49.27336 | 8.03080 | 3378 ft | 241 kts | 214° |
| 2026-05-08 19:36 | 49.25975 | 8.01577 | 3581 ft | 240 kts | 214° |
| 2026-05-08 19:36 | 49.24596 | 8.00056 | 3533 ft | 244 kts | 214° |
| 2026-05-08 19:37 | 49.23262 | 7.98560 | 3371 ft | 231 kts | 211° |
| 2026-05-08 19:37 | 49.21807 | 7.97827 | 3232 ft | 216 kts | 176° |
| 2026-05-08 19:37 | 49.20406 | 7.98356 | 3102 ft | 203 kts | 153° |
| 2026-05-08 19:37 | 49.19151 | 7.99232 | 3006 ft | 191 kts | 152° |
| 2026-05-08 19:38 | 49.18005 | 8.00110 | 3006 ft | 179 kts | 150° |
| 2026-05-08 19:38 | 49.16930 | 8.00930 | 3003 ft | 164 kts | 145° |
| 2026-05-08 19:38 | 49.16310 | 8.02224 | 3011 ft | 147 kts | 97° |
| 2026-05-08 19:38 | 49.16475 | 8.03692 | 3019 ft | 139 kts | 71° |
| 2026-05-08 19:39 | 49.16804 | 8.05054 | 3015 ft | 134 kts | 70° |
| 2026-05-08 19:39 | 49.17135 | 8.06390 | 3010 ft | 134 kts | 70° |
| 2026-05-08 19:39 | 49.17466 | 8.07721 | 3011 ft | 134 kts | 70° |
| 2026-05-08 19:39 | 49.17799 | 8.09063 | 2998 ft | 135 kts | 70° |
| 2026-05-08 19:40 | 49.18130 | 8.10402 | 2997 ft | 134 kts | 70° |
| 2026-05-08 19:40 | 49.18459 | 8.11728 | 3004 ft | 132 kts | 70° |
| 2026-05-08 19:40 | 49.18796 | 8.13076 | 2873 ft | 138 kts | 70° |
| 2026-05-08 19:40 | 49.19141 | 8.14470 | 2756 ft | 143 kts | 70° |
| 2026-05-08 19:41 | 49.19494 | 8.15904 | 2634 ft | 144 kts | 70° |
| 2026-05-08 19:41 | 49.19846 | 8.17333 | 2511 ft | 147 kts | 70° |
| 2026-05-08 19:41 | 49.20208 | 8.18802 | 2370 ft | 144 kts | 70° |
| 2026-05-08 19:41 | 49.20549 | 8.20200 | 2243 ft | 141 kts | 70° |
| 2026-05-08 19:42 | 49.20890 | 8.21593 | 2123 ft | 139 kts | 70° |
| 2026-05-08 19:42 | 49.21235 | 8.22985 | 2010 ft | 139 kts | 70° |
| 2026-05-08 19:42 | 49.21574 | 8.24337 | 2003 ft | 133 kts | 70° |
| 2026-05-08 19:42 | 49.21981 | 8.25576 | 2009 ft | 131 kts | 47° |
| 2026-05-08 19:43 | 49.22795 | 8.26340 | 2010 ft | 146 kts | 32° |
| 2026-05-08 19:43 | 49.23726 | 8.27048 | 2004 ft | 153 kts | 27° |
| 2026-05-08 19:43 | 49.24721 | 8.27691 | 2012 ft | 158 kts | 26° |
| 2026-05-08 19:43 | 49.25755 | 8.28348 | 2007 ft | 163 kts | 26° |
| 2026-05-08 19:44 | 49.26804 | 8.29019 | 2013 ft | 166 kts | 26° |
| 2026-05-08 19:44 | 49.27884 | 8.29722 | 2008 ft | 169 kts | 26° |
| 2026-05-08 19:44 | 49.28962 | 8.30426 | 2024 ft | 169 kts | 27° |
| 2026-05-08 19:44 | 49.30065 | 8.31151 | 2002 ft | 175 kts | 26° |
| 2026-05-08 19:45 | 49.31197 | 8.31891 | 2003 ft | 180 kts | 26° |
| 2026-05-08 19:45 | 49.32362 | 8.32658 | 2010 ft | 183 kts | 26° |
| 2026-05-08 19:45 | 49.33536 | 8.33432 | 2012 ft | 184 kts | 26° |
| 2026-05-08 19:45 | 49.34717 | 8.34196 | 2011 ft | 184 kts | 22° |
| 2026-05-08 19:46 | 49.35987 | 8.34499 | 2015 ft | 187 kts | 4° |
| 2026-05-08 19:46 | 49.37293 | 8.34353 | 2014 ft | 189 kts | 356° |
| 2026-05-08 19:46 | 49.39928 | 8.33764 | 2014 ft | 193 kts | 355° |
| 2026-05-08 19:47 | 49.41260 | 8.33465 | 2019 ft | 194 kts | 355° |
| 2026-05-08 19:47 | 49.42605 | 8.33150 | 2021 ft | 197 kts | 352° |
| 2026-05-08 19:47 | 49.43944 | 8.32635 | 2023 ft | 200 kts | 346° |
| 2026-05-08 19:47 | 49.45277 | 8.31977 | 2016 ft | 203 kts | 345° |
| 2026-05-08 19:48 | 49.46637 | 8.31302 | 2016 ft | 209 kts | 346° |
| 2026-05-08 19:48 | 49.48049 | 8.30622 | 2020 ft | 215 kts | 349° |
| 2026-05-08 19:48 | 49.49539 | 8.30229 | 2026 ft | 220 kts | 356° |
| 2026-05-08 19:48 | 49.51071 | 8.30149 | 2028 ft | 221 kts | 5° |
| 2026-05-08 19:49 | 49.52563 | 8.30284 | 2033 ft | 223 kts | 7° |
| 2026-05-08 19:49 | 49.54118 | 8.30465 | 2031 ft | 224 kts | 7° |
| 2026-05-08 19:49 | 49.55629 | 8.30668 | 2024 ft | 211 kts | 13° |
| 2026-05-08 19:49 | 49.56863 | 8.31700 | 2014 ft | 199 kts | 49° |
| 2026-05-08 19:50 | 49.57409 | 8.33558 | 2016 ft | 188 kts | 82° |
| 2026-05-08 19:50 | 49.57491 | 8.35525 | 1958 ft | 182 kts | 87° |
| 2026-05-08 19:50 | 49.57491 | 8.37438 | 1851 ft | 175 kts | 92° |
| 2026-05-08 19:50 | 49.57417 | 8.39270 | 1750 ft | 164 kts | 92° |
| 2026-05-08 19:51 | 49.57352 | 8.40946 | 1639 ft | 150 kts | 92° |
| 2026-05-08 19:51 | 49.57380 | 8.42491 | 1525 ft | 141 kts | 78° |
| 2026-05-08 19:51 | 49.57778 | 8.43849 | 1483 ft | 136 kts | 55° |
| 2026-05-08 19:51 | 49.58360 | 8.45038 | 1446 ft | 141 kts | 53° |
| 2026-05-08 19:52 | 49.58845 | 8.46324 | 1480 ft | 138 kts | 71° |
| 2026-05-08 19:52 | 49.58962 | 8.47777 | 1461 ft | 140 kts | 93° |
| 2026-05-08 19:52 | 49.58772 | 8.49227 | 1556 ft | 135 kts | 106° |
| 2026-05-08 19:52 | 49.58382 | 8.50526 | 1674 ft | 130 kts | 124° |
| 2026-05-08 19:53 | 49.57560 | 8.51188 | 1706 ft | 146 kts | 174° |
| 2026-05-08 19:53 | 49.56631 | 8.50546 | 1751 ft | 158 kts | 227° |
| 2026-05-08 19:53 | 49.56027 | 8.49040 | 1646 ft | 171 kts | 245° |
| 2026-05-08 19:53 | 49.55631 | 8.47312 | 1620 ft | 172 kts | 257° |
| 2026-05-08 19:54 | 49.55450 | 8.45491 | 1661 ft | 171 kts | 262° |
| 2026-05-08 19:54 | 49.55324 | 8.43670 | 1582 ft | 173 kts | 266° |
| 2026-05-08 19:54 | 49.55001 | 8.41951 | 1626 ft | 160 kts | 221° |
| 2026-05-08 19:54 | 49.54047 | 8.41740 | 1638 ft | 144 kts | 155° |
| 2026-05-08 19:55 | 49.53107 | 8.42355 | 1440 ft | 153 kts | 149° |
| 2026-05-08 19:55 | 49.52164 | 8.43102 | 1406 ft | 151 kts | 152° |
| 2026-05-08 19:55 | 49.51156 | 8.43544 | 1323 ft | 147 kts | 166° |
| 2026-05-08 19:55 | 49.50239 | 8.43732 | 1438 ft | 122 kts | 171° |
| 2026-05-08 19:56 | 49.49393 | 8.43738 | 1343 ft | 120 kts | 177° |
| 2026-05-08 19:56 | 49.48532 | 8.43734 | 1178 ft | 120 kts | 174° |
| 2026-05-08 19:56 | 49.47733 | 8.43804 | 1131 ft | 116 kts | 170° |
| 2026-05-08 19:56 | 49.46946 | 8.43934 | 1147 ft | 109 kts | 169° |
| 2026-05-08 19:57 | 49.46231 | 8.44089 | 1167 ft | 101 kts | 167° |
| 2026-05-08 19:57 | 49.45551 | 8.44273 | 1097 ft | 97 kts | 171° |
| 2026-05-08 19:57 | 49.44979 | 8.43944 | 958 ft | 99 kts | 247° |
| 2026-05-08 19:57 | 49.45117 | 8.42989 | 1128 ft | 96 kts | 331° |
| 2026-05-08 19:58 | 49.45795 | 8.42889 | 1187 ft | 106 kts | 17° |
| 2026-05-08 19:58 | 49.46521 | 8.43287 | 1340 ft | 108 kts | 39° |
| 2026-05-08 19:58 | 49.46892 | 8.44279 | 1376 ft | 115 kts | 75° |
| 2026-05-08 19:58 | 49.47095 | 8.45398 | 1435 ft | 100 kts | 73° |
| 2026-05-08 19:59 | 49.47242 | 8.46365 | 1270 ft | 90 kts | 78° |
| 2026-05-08 19:59 | 49.47327 | 8.47307 | 957 ft | 88 kts | 80° |
| 2026-05-08 19:59 | 49.47320 | 8.48226 | 722 ft | 86 kts | 88° |
| 2026-05-08 19:59 | 49.47307 | 8.49127 | 582 ft | 84 kts | 83° |
| 2026-05-08 20:00 | 49.47307 | 8.50016 | 432 ft | 81 kts | 84° |
| 2026-05-08 20:00 | 49.47291 | 8.50839 | 315 ft | 69 kts | 80° |
| 2026-05-08 20:00 | 49.47278 | 8.51443 | 311 ft | 48 kts | 96° |
| 2026-05-08 20:00 | 49.47260 | 8.51839 | 311 ft | 32 kts | 96° |
| 2026-05-08 20:01 | 49.47248 | 8.52077 | 313 ft | 17 kts | 91° |
| 2026-05-08 20:01 | 49.47307 | 8.52154 | 313 ft | 13 kts | 4° |
| 2026-05-08 20:01 | 49.47391 | 8.52160 | 315 ft | 12 kts | 5° |
| 2026-05-08 20:01 | 49.47476 | 8.52168 | 314 ft | 14 kts | 1° |
| 2026-05-08 20:02 | 49.47562 | 8.52176 | 315 ft | 13 kts | 8° |
| 2026-05-08 20:02 | 49.47582 | 8.52141 | 315 ft | 2 kts | 222° |
| 2026-05-08 20:02 | 49.47568 | 8.52140 | 315 ft | 5 kts | 166° |
| 2026-05-08 20:02 | 49.47561 | 8.52139 | 315 ft | 0 kts | 188° |